Time;durP1;ratioP1;P1;durP2;ratioP2;P2;SDS_P1;SDS_P2;PMS_P1;PMS_P2;Temp;Humidity;BMP_temperature;BMP_pressure;BME280_temperature;BME280_humidity;BME280_pressure;Samples;Min_cycle;Max_cycle;Signal;HPM_P1;HPM_P2
2023/06/12 00:00:32;;;;;;;3.80;2.30;;;11.60;99.90;10.80;101252;;;;578171;244;24074;-79
2023/06/12 00:03:01;;;;;;;4.97;2.13;;;11.60;99.90;10.80;101248;;;;578828;244;24076;-79
2023/06/12 00:05:28;;;;;;;6.97;2.10;;;11.60;99.90;10.80;101249;;;;578726;244;24112;-78
2023/06/12 00:07:57;;;;;;;7.03;2.83;;;11.60;99.90;10.80;101250;;;;579882;243;24068;-79
2023/06/12 00:10:24;;;;;;;2.60;2.40;;;11.60;99.90;10.80;101251;;;;580062;243;24066;-80
2023/06/12 00:12:52;;;;;;;7.67;2.73;;;11.60;99.90;10.70;101260;;;;579752;244;24062;-80
2023/06/12 00:15:20;;;;;;;2.53;1.97;;;11.50;99.90;10.70;101253;;;;580112;244;24097;-79
2023/06/12 00:17:48;;;;;;;6.20;2.30;;;11.50;99.90;10.70;101248;;;;579804;244;24081;-77
2023/06/12 00:20:17;;;;;;;10.27;2.70;;;11.40;99.90;10.60;101250;;;;579692;244;24064;-79
2023/06/12 00:22:45;;;;;;;3.03;2.20;;;11.40;99.90;10.60;101245;;;;579450;244;24083;-80
2023/06/12 00:25:12;;;;;;;3.67;2.10;;;11.40;99.90;10.60;101243;;;;579250;244;24095;-80
2023/06/12 00:27:40;;;;;;;3.73;1.97;;;11.40;99.90;10.50;101242;;;;579229;244;24090;-80
2023/06/12 00:30:08;;;;;;;4.83;2.20;;;11.30;99.90;10.50;101239;;;;579202;244;24075;-79
2023/06/12 00:32:36;;;;;;;2.10;2.00;;;11.30;99.90;10.50;101240;;;;579031;244;24073;-80
2023/06/12 00:35:07;;;;;;;3.13;2.47;;;11.30;99.90;10.50;101245;;;;579033;244;24095;-80
2023/06/12 00:37:32;;;;;;;3.13;2.50;;;11.20;99.90;10.40;101242;;;;578470;244;24080;-78
2023/06/12 00:40:00;;;;;;;2.47;2.13;;;11.20;99.90;10.40;101241;;;;579231;244;24071;-79
2023/06/12 00:42:31;;;;;;;3.10;2.80;;;11.20;99.90;10.40;101243;;;;579153;244;24115;-78
2023/06/12 00:44:59;;;;;;;2.33;2.13;;;11.20;99.90;10.40;101248;;;;579256;244;24084;-80
2023/06/12 00:47:29;;;;;;;3.97;2.63;;;11.20;99.90;10.30;101239;;;;579301;244;24096;-80
2023/06/12 00:49:58;;;;;;;4.60;2.30;;;11.10;99.90;10.30;101233;;;;579042;244;24076;-80
2023/06/12 00:52:24;;;;;;;11.13;2.40;;;11.10;99.90;10.30;101243;;;;578909;244;24080;-79
2023/06/12 00:54:50;;;;;;;4.27;2.70;;;11.10;99.90;10.20;101229;;;;579221;244;24066;-79
2023/06/12 00:57:18;;;;;;;2.57;2.37;;;11.00;99.90;10.20;101235;;;;579272;244;24072;-79
2023/06/12 00:59:46;;;;;;;4.03;2.17;;;11.00;99.90;10.20;101236;;;;578955;244;24088;-80
2023/06/12 01:02:14;;;;;;;3.67;2.40;;;11.00;99.90;10.10;101229;;;;578835;244;24066;-78
2023/06/12 01:04:46;;;;;;;2.83;2.17;;;11.00;99.90;10.10;101225;;;;578952;244;24079;-79
2023/06/12 01:07:21;;;;;;;6.23;2.50;;;11.00;99.90;10.10;101228;;;;578848;244;24084;-80
2023/06/12 01:09:55;;;;;;;4.07;2.40;;;10.90;99.90;10.10;101227;;;;578802;244;24061;-79
2023/06/12 01:12:23;;;;;;;2.53;2.30;;;10.90;99.90;10.10;101228;;;;578494;244;24072;-80
2023/06/12 01:14:51;;;;;;;3.20;2.50;;;10.90;99.90;10.10;101222;;;;579106;244;24098;-80
2023/06/12 01:17:19;;;;;;;2.37;2.17;;;10.90;99.90;10.00;101225;;;;579225;244;24134;-80
2023/06/12 01:19:48;;;;;;;3.07;2.23;;;10.90;99.90;10.00;101218;;;;580319;243;24051;-80
2023/06/12 01:22:16;;;;;;;2.30;2.20;;;10.80;99.90;10.00;101216;;;;580322;243;24100;-80
2023/06/12 01:25:04;;;;;;;4.23;2.50;;;10.80;99.90;10.00;101221;;;;580002;244;24057;-79
2023/06/12 01:27:59;;;;;;;7.22;2.87;;;10.80;99.90;10.00;101216;;;;574412;244;35138;-78
2023/06/12 01:30:40;;;;;;;4.87;2.72;;;10.80;99.90;10.00;101225;;;;574318;244;35127;-80
2023/06/12 01:33:07;;;;;;;3.00;2.27;;;10.80;99.90;10.00;101210;;;;579659;244;24087;-80
2023/06/12 01:35:35;;;;;;;1.83;1.73;;;10.80;99.90;10.00;101218;;;;579358;244;24056;-80
2023/06/12 01:38:20;;;;;;;4.90;2.10;;;10.90;99.90;10.00;101218;;;;578924;244;24140;-79
2023/06/12 01:40:49;;;;;;;3.50;2.10;;;10.80;99.90;10.00;101219;;;;578997;244;24063;-79
2023/06/12 01:43:17;;;;;;;4.53;2.00;;;10.90;99.90;10.00;101216;;;;579214;244;24091;-79
2023/06/12 01:45:45;;;;;;;2.73;2.30;;;10.80;99.90;10.00;101216;;;;579530;244;24074;-79
2023/06/12 01:48:14;;;;;;;7.47;2.27;;;10.80;99.90;10.00;101217;;;;588999;244;24071;-78
2023/06/12 01:50:41;;;;;;;2.77;2.53;;;10.80;99.90;10.00;101207;;;;579449;244;24081;-78
2023/06/12 01:53:18;;;;;;;3.70;2.63;;;10.80;99.90;10.00;101215;;;;579454;244;24052;-79
2023/06/12 01:55:37;;;;;;;6.63;2.70;;;10.80;99.90;10.00;101204;;;;578082;244;24100;-79
2023/06/12 01:58:05;;;;;;;5.03;2.77;;;10.80;99.90;9.90;101211;;;;578950;244;24066;-78
2023/06/12 02:00:33;;;;;;;2.60;2.40;;;10.80;99.90;9.90;101213;;;;579250;244;24062;-79
2023/06/12 02:03:01;;;;;;;4.70;2.47;;;10.70;99.90;9.90;101222;;;;578898;244;24094;-80
2023/06/12 02:05:29;;;;;;;4.77;3.07;;;10.70;99.90;9.90;101220;;;;578839;244;24075;-80
2023/06/12 02:07:58;;;;;;;3.80;2.87;;;10.70;99.90;9.90;101216;;;;579177;244;24057;-80
2023/06/12 02:10:27;;;;;;;11.13;3.30;;;10.70;99.90;9.90;101215;;;;579234;244;24067;-80
2023/06/12 02:12:55;;;;;;;4.13;3.50;;;10.70;99.90;9.90;101202;;;;579230;244;24217;-81
2023/06/12 02:15:22;;;;;;;4.70;3.03;;;10.70;99.90;9.90;101207;;;;578876;244;24068;-80
2023/06/12 02:17:50;;;;;;;2.97;2.77;;;10.70;99.90;9.90;101207;;;;578742;244;24082;-80
2023/06/12 02:20:19;;;;;;;3.13;2.83;;;10.70;99.90;9.90;101207;;;;578932;244;24066;-79
2023/06/12 02:22:48;;;;;;;7.10;2.83;;;10.70;99.90;9.90;101208;;;;578749;244;24086;-79
2023/06/12 02:25:16;;;;;;;2.73;2.50;;;10.70;99.90;10.00;101213;;;;578950;244;24045;-80
2023/06/12 02:27:43;;;;;;;2.60;2.40;;;10.70;99.90;10.00;101211;;;;578887;244;24092;-79
2023/06/12 02:30:14;;;;;;;3.33;2.43;;;10.70;99.90;10.00;101204;;;;579353;243;24066;-79
2023/06/12 02:32:39;;;;;;;3.60;2.97;;;10.80;99.90;10.00;101209;;;;579638;243;24127;-79
2023/06/12 02:35:08;;;;;;;2.73;2.53;;;10.80;99.90;10.00;101220;;;;579754;244;24092;-80
2023/06/12 02:37:38;;;;;;;5.60;2.67;;;10.80;99.90;10.00;101213;;;;579586;244;24152;-78
2023/06/12 02:40:03;;;;;;;4.37;2.63;;;10.80;99.90;10.10;101216;;;;579177;244;24108;-79
2023/06/12 02:42:31;;;;;;;3.33;2.57;;;10.80;99.90;10.10;101211;;;;579531;244;24126;-78
2023/06/12 02:45:00;;;;;;;3.97;2.60;;;10.90;99.90;10.10;101218;;;;579453;244;24050;-79
2023/06/12 02:47:28;;;;;;;4.73;3.03;;;10.90;99.90;10.20;101221;;;;579745;244;24106;-80
2023/06/12 02:49:56;;;;;;;3.33;2.17;;;10.90;99.90;10.20;101227;;;;579492;244;24063;-79
2023/06/12 02:52:24;;;;;;;3.63;2.50;;;11.00;99.90;10.30;101225;;;;579501;244;24041;-78
2023/06/12 02:54:52;;;;;;;5.60;2.80;;;11.00;99.90;10.30;101226;;;;579563;244;24085;-79
2023/06/12 02:57:20;;;;;;;3.77;2.80;;;11.10;99.90;10.40;101228;;;;579472;244;24046;-79
2023/06/12 02:59:48;;;;;;;6.57;2.60;;;11.10;99.90;10.40;101228;;;;579256;244;24165;-79
2023/06/12 03:02:15;;;;;;;3.83;2.43;;;11.20;99.90;10.50;101229;;;;579133;244;24092;-79
2023/06/12 03:04:44;;;;;;;8.80;2.97;;;11.20;99.90;10.60;101232;;;;579068;244;24117;-79
2023/06/12 03:07:13;;;;;;;3.03;2.73;;;11.30;99.90;10.70;101231;;;;579009;244;24113;-78
2023/06/12 03:09:39;;;;;;;4.40;3.03;;;11.40;99.90;10.80;101233;;;;578781;244;24087;-80
2023/06/12 03:12:07;;;;;;;3.87;3.03;;;11.50;99.90;11.00;101246;;;;578962;244;24104;-81
2023/06/12 03:14:36;;;;;;;3.80;3.03;;;11.70;99.90;11.50;101237;;;;578839;244;25083;-79
2023/06/12 03:17:03;;;;;;;5.17;3.13;;;12.00;99.90;12.20;101239;;;;579167;244;24055;-80
2023/06/12 03:19:31;;;;;;;4.20;2.70;;;12.70;99.90;12.90;101244;;;;579276;244;24041;-81
2023/06/12 03:22:03;;;;;;;7.43;3.17;;;13.40;99.90;13.70;101253;;;;582986;244;24044;-80
2023/06/12 03:24:29;;;;;;;4.23;2.20;;;14.10;99.90;14.50;101259;;;;578736;244;24053;-80
2023/06/12 03:27:00;;;;;;;6.27;3.13;;;14.90;99.90;15.20;101256;;;;579200;244;24053;-80
2023/06/12 03:29:29;;;;;;;11.97;2.87;;;16.50;99.90;16.00;101255;;;;579241;244;24079;-79
2023/06/12 03:31:58;;;;;;;3.63;2.50;;;17.10;99.90;16.70;101251;;;;579247;244;24066;-78
2023/06/12 03:34:25;;;;;;;8.83;3.33;;;17.10;99.90;17.30;101258;;;;579282;244;24045;-80
2023/06/12 03:36:53;;;;;;;10.00;2.80;;;17.80;99.90;18.00;101263;;;;579282;244;24089;-80
2023/06/12 03:39:21;;;;;;;4.97;3.53;;;18.50;99.90;18.60;101268;;;;578780;244;24075;-79
2023/06/12 03:41:58;;;;;;;5.03;2.77;;;19.20;99.90;19.20;101260;;;;579404;243;23072;-80
2023/06/12 03:44:26;;;;;;;3.77;3.17;;;19.80;99.90;20.00;101268;;;;580174;243;24066;-79
2023/06/12 03:46:54;;;;;;;6.77;3.30;;;20.50;99.90;20.60;101260;;;;580363;244;24102;-82
2023/06/12 03:49:23;;;;;;;4.63;2.70;;;21.10;99.90;21.00;101263;;;;580349;244;24055;-79
2023/06/12 03:51:53;;;;;;;9.73;3.90;;;21.60;99.90;21.70;101258;;;;575177;244;35106;-80
2023/06/12 03:54:18;;;;;;;5.63;3.20;;;22.30;98.60;22.10;101269;;;;579845;244;24042;-80
2023/06/12 03:56:45;;;;;;;7.37;3.13;;;22.70;97.40;22.70;101265;;;;580235;244;24050;-79
2023/06/12 03:59:13;;;;;;;6.07;3.03;;;23.30;94.30;23.20;101271;;;;579679;244;24060;-79
2023/06/12 04:01:48;;;;;;;4.00;3.03;;;23.90;92.80;23.60;101275;;;;579237;244;23077;-80
2023/06/12 04:04:15;;;;;;;4.57;2.80;;;24.40;91.00;24.10;101279;;;;579252;244;23161;-79
2023/06/12 04:06:44;;;;;;;4.47;2.97;;;25.40;84.60;24.70;101278;;;;579221;244;23086;-81
2023/06/12 04:09:14;;;;;;;9.00;3.73;;;25.80;81.70;25.20;101275;;;;579223;244;23170;-80
2023/06/12 04:11:40;;;;;;;28.20;6.83;;;25.80;81.00;25.70;101277;;;;579061;244;23091;-80
2023/06/12 04:14:08;;;;;;;5.27;2.63;;;26.30;77.40;26.10;101282;;;;579124;244;24127;-79
2023/06/12 04:16:36;;;;;;;12.55;3.60;;;26.80;75.00;26.70;101282;;;;574576;244;35095;-80
2023/06/12 04:19:05;;;;;;;11.67;3.27;;;27.40;72.20;27.10;101281;;;;579369;244;23111;-80
2023/06/12 04:21:32;;;;;;;3.92;2.78;;;27.80;70.00;27.50;101285;;;;579362;244;23071;-80
2023/06/12 04:24:07;;;;;;;8.45;3.00;;;28.30;66.90;27.90;101277;;;;579378;244;24059;-80
2023/06/12 04:26:31;;;;;;;5.43;2.42;;;28.70;64.90;28.30;101286;;;;579014;244;23118;-80
2023/06/12 04:29:02;;;;;;;6.97;2.60;;;29.20;62.60;28.50;101283;;;;579530;244;23058;-80
2023/06/12 04:31:27;;;;;;;5.12;2.97;;;29.50;61.30;29.10;101291;;;;579058;244;24192;-80
2023/06/12 04:33:55;;;;;;;3.37;2.85;;;30.00;59.80;29.60;101292;;;;579333;244;23098;-80
2023/06/12 04:36:23;;;;;;;16.50;3.65;;;30.50;58.70;29.90;101297;;;;579389;244;23059;-79
2023/06/12 04:38:52;;;;;;;6.00;3.40;;;31.40;57.00;30.30;101299;;;;579376;244;23070;-79
2023/06/12 04:41:27;;;;;;;9.98;2.60;;;31.90;55.60;30.80;101300;;;;578909;244;23079;-79
2023/06/12 04:44:04;;;;;;;6.85;2.90;;;31.80;55.50;31.40;101307;;;;574147;244;35208;-79
2023/06/12 04:46:22;;;;;;;5.53;2.40;;;32.50;53.50;31.80;101313;;;;578154;244;24101;-80
2023/06/12 04:48:50;;;;;;;8.88;3.58;;;32.80;52.80;32.20;101319;;;;579300;244;23122;-82
2023/06/12 04:51:18;;;;;;;3.55;2.60;;;33.30;51.60;32.60;101314;;;;579127;244;23078;-80
2023/06/12 04:53:47;;;;;;;15.13;3.10;;;33.70;51.10;33.10;101317;;;;579976;243;23125;-80
2023/06/12 04:56:20;;;;;;;7.68;3.17;;;34.30;49.70;33.80;101325;;;;575331;243;35131;-80
2023/06/12 04:58:44;;;;;;;9.40;2.95;;;34.90;48.20;34.00;101319;;;;579511;244;23070;-79
2023/06/12 05:01:12;;;;;;;5.97;2.83;;;35.30;47.30;34.30;101327;;;;579571;244;23081;-80
2023/06/12 05:03:41;;;;;;;7.03;2.87;;;36.10;46.20;34.90;101323;;;;579477;244;23076;-80
2023/06/12 05:06:09;;;;;;;4.55;2.70;;;36.10;46.20;35.50;101328;;;;579261;244;23066;-80
2023/06/12 05:08:37;;;;;;;5.78;2.65;;;36.70;44.60;35.70;101325;;;;579465;244;24108;-80
2023/06/12 05:11:05;;;;;;;6.28;3.00;;;36.90;43.50;35.90;101335;;;;579237;244;23066;-79
2023/06/12 05:13:32;;;;;;;5.35;2.42;;;37.10;43.40;36.30;101338;;;;579041;244;24136;-80
2023/06/12 05:16:00;;;;;;;6.28;2.78;;;37.40;42.90;36.60;101341;;;;579149;244;23053;-79
2023/06/12 05:18:28;;;;;;;7.68;2.60;;;37.70;41.80;36.70;101335;;;;579554;244;23075;-79
2023/06/12 05:20:59;;;;;;;6.25;2.10;;;37.90;41.50;37.10;101335;;;;579520;244;23075;-79
2023/06/12 05:23:25;;;;;;;7.53;1.90;;;38.80;38.20;37.80;101330;;;;579585;244;23064;-79
2023/06/12 05:25:55;;;;;;;4.05;2.10;;;39.10;35.70;38.10;101332;;;;579579;244;24116;-80
2023/06/12 05:28:23;;;;;;;2.10;1.75;;;39.10;35.60;37.40;101333;;;;579594;244;23074;-80
2023/06/12 05:30:51;;;;;;;6.15;2.00;;;38.70;35.40;37.30;101328;;;;579400;244;23054;-80
2023/06/12 05:33:18;;;;;;;2.40;2.20;;;38.40;35.40;37.40;101334;;;;579467;244;23059;-80
2023/06/12 05:35:49;;;;;;;2.37;1.92;;;38.40;35.00;37.20;101324;;;;579388;244;23101;-80
2023/06/12 05:38:17;;;;;;;3.05;2.10;;;38.40;35.00;37.00;101332;;;;579199;244;23111;-79
2023/06/12 05:40:44;;;;;;;3.20;2.03;;;38.20;35.60;37.60;101331;;;;579270;244;23063;-79
2023/06/12 05:43:12;;;;;;;2.10;1.90;;;38.50;35.40;37.80;101331;;;;578985;244;23082;-80
2023/06/12 05:45:40;;;;;;;2.20;2.03;;;38.60;34.90;37.60;101326;;;;578849;244;24092;-80
2023/06/12 05:48:08;;;;;;;2.62;2.10;;;38.50;34.70;37.50;101326;;;;579218;244;24136;-79
2023/06/12 05:50:36;;;;;;;5.07;2.10;;;38.50;35.40;38.20;101327;;;;579214;244;23086;-80
2023/06/12 05:53:04;;;;;;;3.28;2.03;;;38.90;35.50;38.70;101321;;;;579276;244;23077;-81
2023/06/12 05:55:32;;;;;;;2.15;2.05;;;39.30;35.50;39.60;101332;;;;579218;244;23051;-79
2023/06/12 05:58:00;;;;;;;5.85;2.30;;;40.10;34.40;39.70;101336;;;;579110;244;23078;-79
2023/06/12 06:00:29;;;;;;;4.03;2.40;;;40.70;34.20;40.10;101334;;;;579218;244;23051;-80
2023/06/12 06:02:57;;;;;;;7.72;2.33;;;41.00;34.40;40.40;101331;;;;578916;244;23094;-80
2023/06/12 06:05:25;;;;;;;3.53;2.40;;;41.00;34.30;40.40;101327;;;;579528;243;23072;-79
2023/06/12 06:07:53;;;;;;;5.05;2.10;;;41.10;34.50;40.90;101333;;;;580183;243;23059;-80
2023/06/12 06:10:21;;;;;;;5.22;2.30;;;41.50;33.90;40.80;101326;;;;579757;244;23060;-81
2023/06/12 06:12:52;;;;;;;4.40;1.87;;;41.50;34.40;41.50;101340;;;;579783;244;23062;-79
2023/06/12 06:15:17;;;;;;;4.00;2.05;;;42.00;34.00;42.10;101342;;;;579121;244;23105;-80
2023/06/12 06:17:45;;;;;;;3.65;2.35;;;42.50;33.50;42.70;101338;;;;579794;244;23100;-79
2023/06/12 06:20:13;;;;;;;6.25;2.58;;;43.10;33.20;43.30;101342;;;;579781;244;23109;-80
2023/06/12 06:22:42;;;;;;;2.72;2.50;;;43.70;33.10;44.00;101341;;;;579702;244;23056;-79
2023/06/12 06:25:12;;;;;;;4.55;2.37;;;44.30;32.50;44.60;101339;;;;579474;244;23074;-81
2023/06/12 06:27:39;;;;;;;5.18;2.25;;;45.00;32.10;45.00;101341;;;;578869;244;24176;-79
2023/06/12 06:30:04;;;;;;;4.15;2.35;;;45.30;31.20;45.10;101342;;;;579264;244;23071;-79
2023/06/12 06:32:32;;;;;;;4.65;2.47;;;45.50;30.50;45.30;101338;;;;579618;244;23060;-79
2023/06/12 06:35:04;;;;;;;4.78;2.20;;;46.10;30.20;45.60;101340;;;;579600;244;23083;-80
2023/06/12 06:37:29;;;;;;;6.30;2.47;;;46.00;30.10;45.50;101341;;;;579278;244;23069;-79
2023/06/12 06:39:57;;;;;;;4.43;2.58;;;46.10;30.10;45.40;101337;;;;579479;244;23096;-80
2023/06/12 06:42:25;;;;;;;10.90;3.25;;;46.00;30.30;45.70;101342;;;;579303;244;23055;-79
2023/06/12 06:44:53;;;;;;;5.40;2.22;;;46.20;30.40;46.00;101342;;;;578834;244;23072;-78
2023/06/12 06:47:20;;;;;;;4.68;2.67;;;46.30;29.90;45.90;101343;;;;578787;244;23126;-80
2023/06/12 06:49:49;;;;;;;4.12;2.65;;;46.30;29.90;46.00;101349;;;;574193;244;35158;-81
2023/06/12 06:52:22;;;;;;;5.32;2.20;;;46.40;29.60;45.60;101356;;;;579204;244;23074;-81
2023/06/12 06:54:47;;;;;;;4.90;2.78;;;46.10;29.70;45.90;101345;;;;579225;244;23120;-81
2023/06/12 06:57:15;;;;;;;7.57;3.15;;;46.30;29.70;46.30;101350;;;;579187;244;23051;-78
2023/06/12 06:59:46;;;;;;;6.07;2.33;;;46.50;29.80;46.40;101356;;;;579014;244;23119;-80
2023/06/12 07:02:11;;;;;;;9.45;3.10;;;46.70;29.10;46.40;101346;;;;578517;244;23092;-81
2023/06/12 07:04:39;;;;;;;10.02;3.15;;;46.70;29.40;46.80;101356;;;;578844;244;23079;-80
2023/06/12 07:07:07;;;;;;;13.18;3.65;;;47.20;29.30;46.90;101351;;;;578923;244;23091;-79
2023/06/12 07:09:35;;;;;;;10.40;2.70;;;47.10;29.20;47.20;101358;;;;578803;244;23056;-80
2023/06/12 07:12:06;;;;;;;8.20;2.95;;;47.40;29.10;47.20;101348;;;;578977;244;23074;-80
2023/06/12 07:14:32;;;;;;;17.55;3.05;;;47.60;29.20;47.60;101364;;;;578667;244;23114;-80
2023/06/12 07:17:00;;;;;;;14.43;3.28;;;47.80;28.70;47.70;101358;;;;579698;243;23089;-79
2023/06/12 07:19:30;;;;;;;5.25;2.45;;;48.00;28.70;47.80;101364;;;;580433;243;23082;-79
2023/06/12 07:21:57;;;;;;;8.80;3.37;;;47.90;28.60;47.60;101361;;;;580107;244;23058;-82
2023/06/12 07:24:25;;;;;;;20.35;3.92;;;47.90;28.90;47.50;101358;;;;580055;244;23046;-82
2023/06/12 07:26:53;;;;;;;5.30;2.95;;;47.80;29.40;47.00;101360;;;;579757;244;23068;-81
2023/06/12 07:29:22;;;;;;;8.13;3.42;;;47.50;29.20;47.00;101372;;;;579775;244;23064;-79
2023/06/12 07:31:49;;;;;;;19.20;4.22;;;47.30;28.90;46.50;101372;;;;579673;244;23092;-79
2023/06/12 07:34:17;;;;;;;11.43;3.28;;;47.00;28.40;46.30;101377;;;;579709;244;23198;-80
2023/06/12 07:36:45;;;;;;;9.27;2.67;;;46.90;28.50;46.20;101370;;;;579476;244;23056;-81
2023/06/12 07:39:15;;;;;;;8.15;3.25;;;46.60;28.80;45.70;101374;;;;579555;244;23063;-81
2023/06/12 07:41:42;;;;;;;5.80;2.35;;;46.30;28.80;45.40;101367;;;;579357;244;23088;-81
2023/06/12 07:44:08;;;;;;;10.52;3.08;;;46.00;28.90;45.50;101372;;;;579487;244;23083;-80
2023/06/12 07:46:39;;;;;;;3.40;2.35;;;45.90;29.20;45.30;101375;;;;578958;244;23087;-80
2023/06/12 07:49:04;;;;;;;5.45;2.87;;;45.80;29.20;44.90;101368;;;;578874;244;23093;-79
2023/06/12 07:51:32;;;;;;;7.55;2.80;;;45.50;29.20;44.90;101364;;;;579458;244;23063;-80
2023/06/12 07:54:00;;;;;;;6.47;3.20;;;45.40;29.10;44.80;101367;;;;579311;244;23067;-80
2023/06/12 07:56:28;;;;;;;16.73;3.50;;;45.30;29.20;45.00;101369;;;;579267;244;23078;-81
2023/06/12 07:59:00;;;;;;;15.05;3.30;;;45.30;29.60;45.20;101377;;;;578938;244;24126;-80
2023/06/12 08:01:26;;;;;;;7.80;2.30;;;45.50;28.90;45.10;101368;;;;578832;244;23132;-82
2023/06/12 08:03:56;;;;;;;6.40;2.45;;;45.40;28.80;45.20;101368;;;;578647;244;26336;-81
2023/06/12 08:06:24;;;;;;;4.25;2.47;;;45.50;29.20;45.70;101372;;;;578899;244;23093;-79
2023/06/12 08:08:49;;;;;;;6.32;2.12;;;45.90;28.50;45.40;101372;;;;578765;244;23092;-80
2023/06/12 08:11:17;;;;;;;13.62;3.53;;;45.80;28.50;45.50;101372;;;;579274;244;23059;-80
2023/06/12 08:13:45;;;;;;;7.60;2.55;;;45.80;28.90;45.60;101375;;;;579332;244;23043;-81
2023/06/12 08:16:13;;;;;;;7.28;2.37;;;45.90;29.00;46.00;101370;;;;579336;244;24122;-80
2023/06/12 08:18:44;;;;;;;6.80;2.28;;;46.20;27.80;46.40;101367;;;;578845;244;23089;-82
2023/06/12 08:21:09;;;;;;;21.73;3.53;;;46.60;27.90;46.40;101359;;;;579104;244;23073;-82
2023/06/12 08:23:36;;;;;;;7.00;2.92;;;46.80;28.30;46.50;101366;;;;579323;244;23059;-79
2023/06/12 08:26:04;;;;;;;9.43;2.80;;;46.90;28.10;46.30;101364;;;;574289;244;45971;-80
2023/06/12 08:28:37;;;;;;;6.60;2.60;;;46.80;27.50;46.20;101365;;;;579920;243;24086;-81
2023/06/12 08:31:03;;;;;;;3.75;2.60;;;46.80;27.30;46.20;101356;;;;579141;243;24132;-80
2023/06/12 08:33:30;;;;;;;7.93;2.33;;;46.80;27.70;46.30;101344;;;;580229;244;23048;-80
2023/06/12 08:35:59;;;;;;;9.02;2.20;;;46.90;27.40;46.50;101360;;;;580091;244;23071;-80
2023/06/12 08:38:30;;;;;;;5.37;2.20;;;47.00;27.50;46.40;101360;;;;579845;244;23064;-80
2023/06/12 08:40:57;;;;;;;6.12;1.87;;;46.80;27.40;46.60;101357;;;;579560;244;23048;-80
2023/06/12 08:43:22;;;;;;;8.98;2.40;;;47.10;26.60;46.10;101368;;;;577620;244;24115;-80
2023/06/12 08:45:50;;;;;;;5.43;2.15;;;46.90;26.70;45.30;101352;;;;579936;244;23091;-82
2023/06/12 08:48:21;;;;;;;9.63;2.55;;;46.50;26.80;44.90;101358;;;;579104;244;23100;-81
2023/06/12 08:50:47;;;;;;;5.37;2.37;;;45.90;27.40;44.60;101345;;;;578687;244;24109;-80
2023/06/12 08:53:18;;;;;;;3.65;1.70;;;45.60;26.50;44.90;101347;;;;579458;244;23079;-80
2023/06/12 08:55:45;;;;;;;3.72;1.58;;;45.60;26.50;45.00;101342;;;;579081;244;23087;-81
2023/06/12 08:58:10;;;;;;;3.65;1.80;;;45.80;26.30;45.20;101349;;;;579045;244;23102;-78
2023/06/12 09:00:41;;;;;;;5.60;2.30;;;45.90;26.30;44.60;101350;;;;579083;244;23128;-81
2023/06/12 09:03:06;;;;;;;4.07;2.40;;;45.80;27.00;44.40;101346;;;;578617;244;24173;-80
2023/06/12 09:05:37;;;;;;;5.97;3.05;;;45.50;27.40;44.90;101340;;;;578979;244;23108;-80
2023/06/12 09:08:05;;;;;;;12.85;2.87;;;45.70;27.30;45.10;101340;;;;578634;244;23053;-82
2023/06/12 09:10:33;;;;;;;3.03;2.58;;;45.90;26.90;44.80;101337;;;;578955;244;23096;-81
2023/06/12 09:13:02;;;;;;;5.65;2.53;;;45.70;27.60;44.60;101332;;;;578654;244;23116;-79
2023/06/12 09:15:30;;;;;;;9.63;2.42;;;45.60;27.60;44.80;101339;;;;578499;244;23076;-80
2023/06/12 09:17:59;;;;;;;6.85;2.40;;;46.00;26.90;45.20;101340;;;;578869;244;24144;-80
2023/06/12 09:20:33;;;;;;;3.90;2.20;;;46.00;26.90;45.40;101338;;;;578739;244;23088;-80
2023/06/12 09:23:01;;;;;;;3.78;2.45;;;46.20;27.50;44.90;101345;;;;573900;246;23046;-80
2023/06/12 09:25:42;;;;;;;2.17;1.50;;;46.20;27.40;45.10;101342;;;;574061;246;23050;-79
2023/06/12 09:28:09;;;;;;;2.83;2.33;;;46.20;25.90;44.30;101344;;;;573863;246;23062;-80
2023/06/12 09:30:37;;;;;;;5.57;2.10;;;45.90;26.20;43.80;101341;;;;584150;241;23048;-80
2023/06/12 09:33:05;;;;;;;6.62;1.92;;;45.40;26.90;44.00;101331;;;;571689;246;23052;-80
2023/06/12 09:35:30;;;;;;;4.00;1.85;;;45.40;26.10;43.50;101328;;;;584050;241;23023;-80
2023/06/12 09:37:58;;;;;;;3.87;2.20;;;45.00;27.30;43.50;101330;;;;578512;244;23114;-80
2023/06/12 09:40:27;;;;;;;5.10;2.00;;;45.20;26.90;44.10;101337;;;;586642;241;23021;-80
2023/06/12 09:42:56;;;;;;;3.12;1.87;;;45.30;26.50;43.80;101337;;;;585804;241;24141;-81
2023/06/12 09:45:24;;;;;;;7.03;1.90;;;45.30;26.40;43.30;101340;;;;585433;241;23022;-81
2023/06/12 09:47:52;;;;;;;5.07;1.80;;;45.00;26.70;42.30;101335;;;;585340;241;23009;-80
2023/06/12 09:50:22;;;;;;;3.12;2.33;;;44.40;26.90;42.30;101331;;;;572775;246;23080;-80
2023/06/12 09:52:47;;;;;;;9.52;2.53;;;44.10;27.60;43.10;101331;;;;584571;241;23020;-79
2023/06/12 09:55:15;;;;;;;6.35;2.42;;;44.40;27.70;42.90;101333;;;;584897;241;23021;-80
2023/06/12 09:57:43;;;;;;;7.95;2.00;;;44.40;27.80;42.50;101317;;;;573641;246;23094;-80
2023/06/12 10:00:13;;;;;;;4.57;2.30;;;43.90;28.60;42.00;101329;;;;573597;246;23102;-80
2023/06/12 10:02:43;;;;;;;5.18;2.67;;;43.80;28.50;42.30;101323;;;;584093;241;23060;-80
2023/06/12 10:05:11;;;;;;;8.45;2.72;;;43.90;29.20;42.60;101324;;;;583808;241;23059;-80
2023/06/12 10:07:42;;;;;;;3.45;2.00;;;44.20;28.00;42.70;101325;;;;581213;244;23065;-79
2023/06/12 10:10:14;;;;;;;8.45;2.20;;;43.80;28.90;41.90;101320;;;;584082;241;24062;-78
2023/06/12 10:12:40;;;;;;;6.25;2.50;;;43.60;29.50;41.80;101310;;;;568540;246;35053;-79
2023/06/12 10:15:08;;;;;;;12.63;3.22;;;43.50;29.20;41.00;101314;;;;573650;246;23061;-80
2023/06/12 10:17:36;;;;;;;8.30;2.92;;;42.90;30.00;40.20;101309;;;;583816;241;23023;-78
2023/06/12 10:20:04;;;;;;;10.23;2.53;;;42.00;30.10;39.50;101310;;;;583909;241;26228;-80
2023/06/12 10:22:32;;;;;;;14.25;2.97;;;41.20;30.00;38.30;101314;;;;573803;246;23082;-80
2023/06/12 10:25:00;;;;;;;8.60;2.80;;;40.30;31.10;37.10;101313;;;;584256;241;23122;-80
2023/06/12 10:27:27;;;;;;;9.00;2.42;;;39.20;31.70;36.00;101313;;;;571730;246;23077;-79
2023/06/12 10:29:56;;;;;;;9.52;2.95;;;38.10;32.70;35.00;101310;;;;571740;246;23094;-78
2023/06/12 10:32:23;;;;;;;9.73;2.42;;;37.00;34.30;34.40;101305;;;;584262;241;23076;-78
2023/06/12 10:34:54;;;;;;;11.27;2.35;;;36.20;34.80;34.00;101296;;;;584320;241;23067;-79
2023/06/12 10:37:25;;;;;;;3.00;2.42;;;35.50;35.30;33.00;101302;;;;578404;244;23066;-80
2023/06/12 10:40:20;;;;;;;4.20;2.47;;;34.60;35.00;31.90;101304;;;;573245;246;23053;-78
2023/06/12 10:42:54;;;;;;;6.85;2.33;;;33.30;37.00;30.40;101307;;;;584666;241;23021;-79
2023/06/12 10:45:21;;;;;;;6.28;2.05;;;31.70;38.60;29.00;101308;;;;578049;244;23091;-77
2023/06/12 10:48:05;;;;;;;4.60;2.45;;;30.10;40.00;27.80;101294;;;;578102;244;23072;-77
2023/06/12 10:50:36;;;;;;;6.60;3.07;;;27.50;42.70;26.70;101292;;;;578408;244;24172;-79
2023/06/12 10:53:04;;;;;;;3.03;2.43;;;27.30;42.50;25.80;101292;;;;574968;245;24134;-78
2023/06/12 10:55:35;;;;;;;2.00;1.80;;;26.50;44.80;25.00;101289;;;;574437;246;23060;-77
2023/06/12 10:58:06;;;;;;;5.67;2.53;;;25.70;45.90;24.30;101282;;;;584788;241;23107;-77
2023/06/12 11:00:37;;;;;;;4.00;2.10;;;24.90;47.50;23.60;101282;;;;585021;241;23085;-80
2023/06/12 11:03:11;;;;;;;3.27;1.93;;;24.20;48.70;23.00;101271;;;;574263;245;24034;-78
2023/06/12 11:05:38;;;;;;;5.30;1.93;;;23.60;48.10;22.40;101272;;;;584813;241;25107;-77
2023/06/12 11:08:07;;;;;;;6.37;1.90;;;22.50;49.60;21.90;101272;;;;574447;245;23063;-78
2023/06/12 11:10:36;;;;;;;1.90;1.67;;;22.10;50.90;21.50;101272;;;;574055;246;24044;-78
2023/06/12 11:13:06;;;;;;;11.67;2.83;;;22.00;51.40;21.20;101264;;;;573974;246;24110;-77
2023/06/12 11:15:42;;;;;;;2.50;2.33;;;21.80;52.30;21.00;101257;;;;584288;241;23073;-77